Thunder radar more information blitzortung!


Rain radar more information rain snow radar


Visit our other weather sites:

Template documentation
and downloads

And another site



from: Jan 23 2019 12:00 am until: 12:00 pm Winter Weather Advisory level: Minor
Minimal threat to life or property - Responsive action SHOULD be taken soon (within next hour)
...LIGHT FREEZING RAIN TONIGHT MAY CAUSE TRAVEL ISSUES FOR SOME AREAS NORTHWEST OF INTERSTATE 85... .Light precipitation will overspread the area from the southwest tonight. In locations where surface temperatures fall below freezing tonight, this precipitation will occur as freezing rain. A light accumulation of ice may cause treacherous road conditions

Nearby METAR Reports

   
EHVK - Volkel Rnlafb, Netherlands
Distance from station: SW 11 mi
Updated: Jan 22 2019 8:25 pm
Mist, Overcast  
Mist, Overcast  
   Wind: SE 5.8 mph
Wind: SE 5.8 mph
Temperature: 30.2°F
Wind Chill: 24.8°F
Dew Point: 26.6°F
Humidity: 86%
Barometer: 29.47 inHg
Clouds: Overcast
Visibility: 3 mi
Cloud details: Overcast 1600 ft
EHVK 230125Z AUTO 13005KT 5000 BR OVC016 M01/M03 Q0998 BLACKWHT
EDLV - Niederrhein, Germany
Distance from station: SE 15 mi
Updated: Jan 22 2019 5:50 pm
NOT Current
Light Snow, Mostly Cloudy  
Light Snow, Mostly Cloudy  
   Wind: SSE 8.1 mph
Wind: SSE 8.1 mph
Temperature: 30.2°F
Wind Chill: 23°F
Dew Point: 26.6°F
Humidity: 86%
Barometer: 29.53 inHg
Clouds: Mostly Cloudy
Visibility: 4 mi
Cloud details: Mostly Cloudy 1400 ft
EDLV 222250Z 15007KT 6000 -SN BKN014 M01/M03 Q1000
EHDL - Deelen Rnlafb, Netherlands
Distance from station: N 22 mi
Updated: Jan 22 2019 8:25 pm
Mist, Overcast  
Mist, Overcast  
   Wind: SSE 5.8 mph
Wind: SSE 5.8 mph
Temperature: 30.2°F
Wind Chill: 24.8°F
Dew Point: 28.4°F
Humidity: 93%
Barometer: 29.47 inHg
Clouds: Overcast
Visibility: 3 mi
Cloud details: Overcast 700 ft
EHDL 230125Z AUTO 16005KT 120V200 4900 BR OVC007 M01/M02 Q0998 GRN
EHEH - Eindhoven Rnlafb, Netherlands
Distance from station: SW 30 mi
Updated: Jan 22 2019 8:25 pm
Mist, Overcast  
Mist, Overcast  
   Wind: SE 6.9 mph
Wind: SE 6.9 mph
Temperature: 30.2°F
Wind Chill: 23°F
Dew Point: 26.6°F
Humidity: 86%
Barometer: 29.47 inHg
Clouds: Overcast
Visibility: 6 mi
Cloud details: Mostly Cloudy 2100 ft,
Overcast 2500 ft
EHEH 230125Z AUTO 14006KT 110V170 9000 BR BKN021 OVC025 M01/M03 Q0998 WHT
EHGR - Gilze-Rijen Rnla, Netherlands
Distance from station: WSW 43 mi
Updated: Jan 22 2019 8:25 pm
Mist, Overcast  
Mist, Overcast  
   Wind: SSE 5.8 mph
Wind: SSE 5.8 mph
Temperature: 32°F
Wind Chill: 26.6°F
Dew Point: 28.4°F
Humidity: 87%
Barometer: 29.47 inHg
Clouds: Overcast
Visibility: 4 mi
Cloud details: Mostly Cloudy 1200 ft,
Overcast 1400 ft
EHGR 230125Z AUTO 15005KT 6000 BR BKN012 OVC014 M00/M02 Q0998 GRN
EBBL - Kleine-Brogel(Ba, Belgium
Distance from station: SSW 44 mi
Updated: Jan 22 2019 8:14 pm
Mostly Cloudy  
Mostly Cloudy  
   Wind: varies 2.3 mph
Wind: varies 2.3 mph
Temperature: 28.4°F
Dew Point: 24.8°F
Humidity: 86%
Barometer: 29.47 inHg
Clouds: Mostly Cloudy
Visibility: 6 mi
Cloud details: Few Clouds 1400 ft,
Mostly Cloudy 3000 ft
EBBL 230114Z AUTO VRB02KT 9000 FEW014/// BKN030/// M02/M04 Q0998 BLU

Script developed by  Saratoga-weather.org Adapted for the template by  Weerstation Leuven

You find our weather info also at:

Weather Underground

AWEKAS

Citizen Weather Observer Program (CWOP)

HAMweather, WeatherForYou, PWS Weather

Equipment we use:

Weather-station
Davis VP2

Weather-program
Weather Display

Weather-server
Dell Poweredge SC420

Provider
1&1 IONOS

Davis VP2

Weather Display

Dell Poweredge SC420

1&1 IONOS